Humidity-temperature Sensor

Selected Measurement Type: Air Temperature

 
Air Temperature [°C]     6 entries per hour
Showing data from 6/23/2022 (00:00:00 Z) to 6/22/2022 (00:01:00 Z)
Previous Next [ Day | 3-Days | 7-Days ]
First Last
Prev [ Day | 3-Days | 7-Days ] Next
First Last

Start Time:     :
End Time:     :     
Time (in GMT) :00 :50 :40 :30 :20 :10
Previous Next [ Day | 3-Days | 7-Days ]
First Last
Prev [ Day | 3-Days | 7-Days ] Next
First Last


123 => good data
MM => data is determined as missing
-- => data not received/configured
Back to Top Back to Top
6/23/2022 00:00 to 23:10 25.57 25.55 25.51 25.68 25.59 25.66
6/22/2022 23:00 to 22:10 25.66 25.60 25.63 25.58 25.70 25.61
6/22/2022 22:00 to 21:10 25.62 25.46 25.43 25.59 25.70 25.55
6/22/2022 21:00 to 20:10 25.65 25.59 25.75 25.66 25.60 25.56
6/22/2022 20:00 to 19:10 25.63 25.59 25.69 25.65 25.89 25.68
6/22/2022 19:00 to 18:10 25.69 25.82 25.73 25.64 25.69 25.80
6/22/2022 18:00 to 17:10 25.79 25.65 25.71 25.89 25.78 25.74
6/22/2022 17:00 to 16:10 26.08 25.95 25.98 25.87 25.85 25.89
6/22/2022 16:00 to 15:10 25.80 25.77 25.70 25.92 25.73 25.44
6/22/2022 15:00 to 14:10 25.58 25.47 25.50 25.40 25.46 25.35
6/22/2022 14:00 to 13:10 25.22 25.52 25.38 25.38 25.53 25.34
6/22/2022 13:00 to 12:10 25.36 25.31 25.22 25.38 25.34 25.36
6/22/2022 12:00 to 11:10 25.30 25.26 25.16 25.44 25.37 25.47
6/22/2022 11:00 to 10:10 25.40 25.49 25.52 25.41 25.34 25.54
6/22/2022 10:00 to 9:10 25.38 25.41 25.61 25.65 25.58 25.57
6/22/2022 09:00 to 8:10 25.66 25.73 25.70 25.67 25.60 25.79
6/22/2022 08:00 to 7:10 25.69 25.73 25.66 25.87 25.81 25.73
6/22/2022 07:00 to 6:10 25.73 25.70 25.93 25.65 25.54 25.60
6/22/2022 06:00 to 5:10 25.75 25.81 25.97 25.80 25.73 25.81
6/22/2022 05:00 to 4:10 25.87 25.80 25.82 25.63 25.82 25.91
6/22/2022 04:00 to 3:10 25.73 25.85 25.76 25.87 25.83 25.77
6/22/2022 03:00 to 2:10 25.61 25.78 25.62 25.76 25.97 25.77
6/22/2022 02:00 to 1:10 25.92 26.06 26.01 25.92 26.10 26.15
6/22/2022 01:00 to 0:10 26.09 26.06 26.29 26.12 25.86 26.02